createdAt,value
2019-03-13T00:00:52.853Z,38.78
2019-03-13T00:06:52.903Z,38.79
2019-03-13T00:12:52.842Z,38.69
2019-03-13T00:18:52.836Z,38.64
2019-03-13T00:24:55.988Z,38.90
2019-03-13T00:30:52.857Z,38.77
2019-03-13T00:36:52.876Z,38.74
2019-03-13T00:42:52.876Z,38.89
2019-03-13T00:48:52.890Z,38.77
2019-03-13T00:54:52.940Z,38.84
2019-03-13T01:00:52.882Z,38.84
2019-03-13T01:06:52.879Z,38.96
2019-03-13T01:12:52.889Z,38.62
2019-03-13T01:18:52.915Z,38.76
2019-03-13T01:24:53.051Z,38.82
2019-03-13T01:30:52.910Z,38.56
2019-03-13T01:36:52.874Z,38.56
2019-03-13T01:42:52.895Z,38.72
2019-03-13T01:48:53.080Z,38.86
2019-03-13T01:54:53.058Z,38.61
2019-03-13T02:00:52.906Z,38.92
2019-03-13T02:06:53.039Z,38.72
2019-03-13T02:12:52.949Z,39.08
2019-03-13T02:18:52.937Z,39.10
2019-03-13T02:24:54.339Z,39.00
2019-03-13T02:30:53.108Z,38.68
2019-03-13T02:36:52.932Z,38.63
2019-03-13T02:42:52.955Z,38.44
2019-03-13T02:48:52.959Z,38.67
2019-03-13T02:54:52.976Z,38.81
2019-03-13T03:00:53.004Z,38.62
2019-03-13T03:06:52.972Z,38.93
2019-03-13T03:12:52.978Z,38.73
2019-03-13T03:18:52.966Z,39.12
2019-03-13T03:24:53.003Z,39.03
2019-03-13T03:30:53.105Z,39.18
2019-03-13T03:36:52.970Z,39.05
2019-03-13T03:42:53.125Z,39.21
2019-03-13T03:48:52.993Z,39.18
2019-03-13T03:54:53.009Z,39.10
2019-03-13T04:00:53.023Z,39.12
2019-03-13T04:06:53.007Z,39.29
2019-03-13T04:12:53.028Z,39.41
2019-03-13T04:18:53.003Z,39.42
2019-03-13T04:24:53.287Z,39.42
2019-03-13T04:30:53.040Z,39.62
2019-03-13T04:36:53.044Z,39.51
2019-03-13T04:42:53.041Z,39.45
2019-03-13T04:48:53.042Z,39.51
2019-03-13T04:54:53.079Z,39.67
2019-03-13T05:00:53.229Z,39.45
2019-03-13T05:06:53.076Z,39.27
2019-03-13T05:12:53.235Z,39.96
2019-03-13T05:18:53.117Z,39.47
2019-03-13T05:24:53.070Z,39.24
2019-03-13T05:30:53.388Z,39.28
2019-03-13T05:36:53.166Z,39.62
2019-03-13T05:42:53.076Z,39.37
2019-03-13T05:48:53.084Z,39.54
2019-03-13T05:54:53.113Z,39.44
2019-03-13T06:00:53.109Z,39.56
2019-03-13T06:06:53.099Z,39.69
2019-03-13T06:12:53.115Z,38.92
2019-03-13T06:18:53.222Z,39.31
2019-03-13T06:24:53.110Z,39.14
2019-03-13T06:30:53.121Z,39.22
2019-03-13T06:36:53.124Z,39.73
2019-03-13T06:42:53.124Z,38.92
2019-03-13T06:48:53.118Z,39.88
2019-03-13T06:54:53.135Z,39.50
2019-03-13T07:00:53.237Z,39.21
2019-03-13T07:06:53.291Z,39.58
2019-03-13T07:12:53.156Z,39.23
2019-03-13T07:18:53.123Z,39.34
2019-03-13T07:24:53.152Z,39.32
2019-03-13T07:30:53.171Z,39.54
2019-03-13T07:36:53.285Z,39.65
2019-03-13T07:42:53.173Z,39.31
2019-03-13T07:48:53.170Z,39.66
2019-03-13T07:54:53.171Z,39.47
2019-03-13T08:00:53.356Z,39.34
2019-03-13T08:06:53.181Z,39.49
2019-03-13T08:12:53.196Z,39.58
2019-03-13T08:18:53.208Z,39.51
2019-03-13T08:24:53.181Z,39.58
2019-03-13T08:30:53.187Z,38.75
2019-03-13T08:36:53.293Z,38.90
2019-03-13T08:42:53.188Z,38.84
2019-03-13T08:48:53.220Z,38.90
2019-03-13T08:54:53.219Z,38.98
2019-03-13T09:00:53.213Z,39.09
2019-03-13T09:06:53.203Z,38.86
2019-03-13T09:12:53.233Z,38.97
2019-03-13T09:18:53.238Z,38.95
2019-03-13T09:24:53.234Z,38.91
2019-03-13T09:30:53.238Z,38.81
2019-03-13T09:36:53.225Z,38.84
2019-03-13T09:42:53.224Z,38.65
2019-03-13T09:48:53.200Z,38.70
2019-03-13T09:54:53.256Z,38.74
2019-03-13T10:00:53.215Z,38.64
2019-03-13T10:06:53.444Z,38.59
2019-03-13T10:12:53.271Z,38.70
2019-03-13T10:18:53.221Z,38.42
2019-03-13T10:24:53.245Z,38.52
2019-03-13T10:30:53.293Z,38.94
2019-03-13T10:36:53.280Z,38.61
2019-03-13T10:42:53.265Z,38.73
2019-03-13T10:48:53.600Z,38.62
2019-03-13T10:54:53.340Z,38.50
2019-03-13T11:00:53.281Z,38.64
2019-03-13T11:06:55.276Z,38.72
2019-03-13T11:12:53.267Z,38.38
2019-03-13T11:18:53.437Z,38.71
2019-03-13T11:24:53.332Z,38.20
2019-03-13T11:30:53.309Z,38.12
2019-03-13T11:36:53.335Z,38.26
2019-03-13T11:42:53.333Z,38.61
2019-03-13T11:48:53.322Z,38.76
2019-03-13T11:54:53.323Z,38.55
2019-03-13T12:00:53.335Z,38.49
2019-03-13T12:06:53.320Z,38.56
2019-03-13T12:12:53.335Z,38.60
2019-03-13T12:18:53.329Z,38.65
2019-03-13T12:24:53.354Z,38.16
2019-03-13T12:30:53.350Z,38.50
2019-03-13T12:36:53.329Z,38.61
2019-03-13T12:42:53.325Z,38.75
2019-03-13T12:48:53.325Z,38.43
2019-03-13T12:54:53.369Z,38.76
2019-03-13T13:00:53.344Z,38.61
2019-03-13T13:06:53.368Z,38.67
2019-03-13T13:12:53.394Z,38.50
2019-03-13T13:18:53.383Z,38.53
2019-03-13T13:24:53.367Z,38.54
2019-03-13T13:30:53.394Z,38.72
2019-03-13T13:36:53.483Z,38.52
2019-03-13T13:42:53.407Z,38.81
2019-03-13T13:48:53.361Z,38.53
2019-03-13T13:54:53.410Z,38.52
2019-03-13T14:00:53.389Z,38.46
2019-03-13T14:06:53.386Z,38.59
2019-03-13T14:12:53.414Z,38.62
2019-03-13T14:18:53.401Z,38.42
2019-03-13T14:24:53.422Z,38.04
2019-03-13T14:30:53.417Z,38.24
2019-03-13T14:36:53.411Z,37.29
2019-03-13T14:42:53.437Z,38.53
2019-03-13T14:48:53.439Z,38.31
2019-03-13T14:54:53.499Z,38.58
2019-03-13T15:00:53.452Z,38.71
2019-03-13T15:06:53.458Z,38.54
2019-03-13T15:12:53.523Z,38.63
2019-03-13T15:18:53.438Z,38.23
2019-03-13T15:24:53.458Z,38.40
2019-03-13T15:30:53.461Z,38.63
2019-03-13T15:36:53.477Z,38.69
2019-03-13T15:42:53.499Z,38.98
2019-03-13T15:48:53.456Z,38.59
2019-03-13T15:54:53.434Z,38.95
2019-03-13T16:00:53.495Z,38.97
2019-03-13T16:06:53.493Z,38.74
2019-03-13T16:12:53.485Z,38.76
2019-03-13T16:18:53.510Z,38.94
2019-03-13T16:24:53.493Z,38.98
2019-03-13T16:30:53.487Z,39.14
2019-03-13T16:36:53.499Z,38.94
2019-03-13T16:42:53.509Z,38.99
2019-03-13T16:48:53.505Z,38.95
2019-03-13T16:54:53.506Z,39.21
2019-03-13T17:00:53.509Z,39.25
2019-03-13T17:06:53.590Z,39.25
2019-03-13T17:12:53.530Z,38.99
2019-03-13T17:18:53.496Z,39.32
2019-03-13T17:24:53.520Z,39.08
2019-03-13T17:30:53.539Z,39.06
2019-03-13T17:36:53.532Z,39.40
2019-03-13T17:42:53.540Z,39.38
2019-03-13T17:48:53.542Z,39.38
2019-03-13T17:54:53.625Z,39.31
2019-03-13T18:00:53.564Z,39.38
2019-03-13T18:06:53.608Z,39.22
2019-03-13T18:12:53.563Z,39.48
2019-03-13T18:18:53.610Z,39.55
2019-03-13T18:24:53.568Z,39.68
2019-03-13T18:30:53.559Z,39.56
2019-03-13T18:36:53.575Z,39.34
2019-03-13T18:42:53.552Z,39.65
2019-03-13T18:48:53.530Z,39.41
2019-03-13T18:54:53.599Z,39.18
2019-03-13T19:00:53.571Z,39.27
2019-03-13T19:06:53.567Z,39.69
2019-03-13T19:12:53.617Z,39.94
2019-03-13T19:18:53.707Z,39.63
2019-03-13T19:24:53.602Z,39.90
2019-03-13T19:30:53.628Z,40.18
2019-03-13T19:36:53.607Z,39.99
2019-03-13T19:42:53.613Z,39.72
2019-03-13T19:48:53.593Z,39.86
2019-03-13T19:54:53.618Z,39.82
2019-03-13T20:00:53.620Z,39.73
2019-03-13T20:06:53.639Z,39.77
2019-03-13T20:12:53.710Z,39.87
2019-03-13T20:18:53.714Z,39.85
2019-03-13T20:24:53.658Z,40.02
2019-03-13T20:30:53.680Z,40.20
2019-03-13T20:36:53.762Z,39.99
2019-03-13T20:42:53.815Z,40.08
2019-03-13T20:48:53.637Z,39.95
2019-03-13T20:54:53.653Z,39.85
2019-03-13T21:00:53.675Z,39.81
2019-03-13T21:06:53.709Z,39.78
2019-03-13T21:12:53.693Z,39.69
2019-03-13T21:18:53.747Z,39.88
2019-03-13T21:24:53.804Z,40.00
2019-03-13T21:30:53.708Z,39.94
2019-03-13T21:36:53.751Z,39.82
2019-03-13T21:42:54.869Z,39.93
2019-03-13T21:48:53.738Z,39.70
2019-03-13T21:54:53.712Z,39.75
2019-03-13T22:00:53.765Z,39.84
2019-03-13T22:06:53.711Z,39.98
2019-03-13T22:12:53.700Z,39.81
2019-03-13T22:18:53.725Z,39.94
2019-03-13T22:24:53.738Z,39.65
2019-03-13T22:30:53.827Z,40.02
2019-03-13T22:36:53.722Z,40.05
2019-03-13T22:42:53.774Z,39.99
2019-03-13T22:48:58.439Z,40.10
2019-03-13T22:54:53.831Z,40.20
2019-03-13T23:00:53.758Z,40.08
2019-03-13T23:06:53.769Z,39.97
2019-03-13T23:12:53.811Z,39.95
2019-03-13T23:18:53.759Z,40.01
2019-03-13T23:24:53.810Z,40.17
2019-03-13T23:30:53.757Z,40.00
2019-03-13T23:36:53.775Z,40.17
2019-03-13T23:42:53.767Z,39.99
2019-03-13T23:48:53.767Z,39.87
2019-03-13T23:54:53.828Z,40.04
